Time;durP1;ratioP1;P1;durP2;ratioP2;P2;SDS_P1;SDS_P2;PMS_P1;PMS_P2;Temp;Humidity;BMP_temperature;BMP_pressure;BME280_temperature;BME280_humidity;BME280_pressure;Samples;Min_cycle;Max_cycle;Signal;HPM_P1;HPM_P2
2021/10/28 00:13:00;;;;;;;23.10;10.65;;;;;;;;;;5061560;28;20024;-65
2021/10/28 00:15:37;;;;;;;25.85;10.20;;;;;;;;;;5095428;28;20047;-65
2021/10/28 00:20:31;;;;;;;21.58;10.75;;;;;;;;;;5095654;28;20025;-65
2021/10/28 00:22:57;;;;;;;23.10;10.82;;;;;;;;;;5077247;28;20115;-66
2021/10/28 00:25:23;;;;;;;24.13;10.80;;;;;;;;;;5095565;28;20028;-66
2021/10/28 00:27:50;;;;;;;23.92;9.95;;;;;;;;;;5077059;28;20016;-65
2021/10/28 00:30:19;;;;;;;21.50;10.52;;;;;;;;;;5076852;28;20028;-66
2021/10/28 00:32:45;;;;;;;22.60;9.38;;;;;;;;;;5095354;28;20020;-66
2021/10/28 00:35:11;;;;;;;20.80;9.13;;;;;;;;;;5077308;28;20020;-66
2021/10/28 00:37:37;;;;;;;22.60;8.90;;;;;;;;;;5095003;28;20057;-65
2021/10/28 00:40:08;;;;;;;24.25;9.80;;;;;;;;;;5077224;28;20016;-66
2021/10/28 00:42:34;;;;;;;21.30;9.18;;;;;;;;;;5077263;28;20480;-66
2021/10/28 00:45:00;;;;;;;21.80;9.65;;;;;;;;;;5095221;28;20024;-66
2021/10/28 00:47:30;;;;;;;22.55;10.15;;;;;;;;;;5076613;28;20448;-66
2021/10/28 00:49:56;;;;;;;21.88;9.77;;;;;;;;;;5095090;28;20099;-66
2021/10/28 00:52:22;;;;;;;22.50;10.25;;;;;;;;;;5076739;28;20024;-66
2021/10/28 00:54:48;;;;;;;23.40;10.48;;;;;;;;;;5095158;28;20024;-66
2021/10/28 00:57:15;;;;;;;21.92;9.98;;;;;;;;;;5076372;28;20028;-66
2021/10/28 00:59:41;;;;;;;25.23;11.15;;;;;;;;;;5076739;28;20028;-66
2021/10/28 01:02:07;;;;;;;25.55;10.27;;;;;;;;;;5095117;28;20027;-66
2021/10/28 01:04:33;;;;;;;22.48;10.43;;;;;;;;;;5094903;28;20028;-66
2021/10/28 01:06:59;;;;;;;24.02;10.25;;;;;;;;;;5076781;28;20028;-66
2021/10/28 01:09:25;;;;;;;22.70;10.68;;;;;;;;;;5094027;28;20099;-66
2021/10/28 01:11:53;;;;;;;25.45;10.88;;;;;;;;;;5094279;28;20133;-65
2021/10/28 01:14:19;;;;;;;22.77;10.43;;;;;;;;;;5094757;28;20020;-66
2021/10/28 01:16:45;;;;;;;25.88;10.93;;;;;;;;;;5094294;28;20577;-66
2021/10/28 01:19:11;;;;;;;26.27;10.38;;;;;;;;;;5094903;28;20484;-66
2021/10/28 01:21:37;;;;;;;27.17;12.25;;;;;;;;;;5095028;28;20040;-65
2021/10/28 01:24:03;;;;;;;23.90;11.30;;;;;;;;;;5094665;28;20023;-66
2021/10/28 01:26:29;;;;;;;25.85;10.82;;;;;;;;;;5094151;28;20046;-66
2021/10/28 01:28:56;;;;;;;27.05;11.70;;;;;;;;;;5094232;28;20476;-66
2021/10/28 01:31:23;;;;;;;26.98;10.93;;;;;;;;;;5076046;28;20427;-66
2021/10/28 01:33:50;;;;;;;23.80;11.88;;;;;;;;;;5076321;28;20066;-66
2021/10/28 01:36:20;;;;;;;24.88;11.60;;;;;;;;;;5075746;28;20111;-66
2021/10/28 01:38:47;;;;;;;24.05;10.65;;;;;;;;;;5075674;28;20020;-66
2021/10/28 01:41:13;;;;;;;26.55;12.00;;;;;;;;;;5075937;28;20035;-66
2021/10/28 01:43:39;;;;;;;24.85;11.57;;;;;;;;;;5094103;28;20106;-66
2021/10/28 01:46:06;;;;;;;23.58;11.32;;;;;;;;;;5075604;28;20035;-66
2021/10/28 01:48:32;;;;;;;26.90;12.45;;;;;;;;;;5075853;28;20502;-65
2021/10/28 01:50:59;;;;;;;26.80;12.05;;;;;;;;;;5075869;28;20024;-66
2021/10/28 01:53:25;;;;;;;26.33;11.43;;;;;;;;;;5075512;28;20028;-66
2021/10/28 01:55:51;;;;;;;26.40;12.40;;;;;;;;;;5093641;28;20468;-66
2021/10/28 01:58:22;;;;;;;26.17;12.55;;;;;;;;;;5075409;28;20025;-66
2021/10/28 02:00:48;;;;;;;27.08;12.23;;;;;;;;;;5093726;28;20446;-66
2021/10/28 02:03:14;;;;;;;28.80;12.52;;;;;;;;;;5075488;28;20479;-66
2021/10/28 02:05:40;;;;;;;25.45;12.18;;;;;;;;;;5075179;28;20031;-64
2021/10/28 02:08:06;;;;;;;26.58;12.38;;;;;;;;;;5075262;28;20032;-66
2021/10/28 02:10:32;;;;;;;29.67;13.10;;;;;;;;;;5093330;28;20466;-66
2021/10/28 02:12:58;;;;;;;27.10;12.57;;;;;;;;;;5093046;28;20048;-66
2021/10/28 02:15:25;;;;;;;27.23;12.48;;;;;;;;;;5075038;28;20071;-66
2021/10/28 02:17:51;;;;;;;26.52;12.90;;;;;;;;;;5074963;28;20448;-66
2021/10/28 02:20:17;;;;;;;26.33;13.30;;;;;;;;;;5093079;28;20028;-66
2021/10/28 02:22:44;;;;;;;29.70;14.63;;;;;;;;;;5074812;28;20016;-66
2021/10/28 02:25:11;;;;;;;27.50;13.32;;;;;;;;;;5075255;28;20463;-66
2021/10/28 02:27:37;;;;;;;26.67;12.30;;;;;;;;;;5074500;28;20072;-65
2021/10/28 02:30:04;;;;;;;26.02;13.43;;;;;;;;;;5074704;28;20028;-66
2021/10/28 02:32:30;;;;;;;28.20;13.88;;;;;;;;;;5074617;28;20066;-66
2021/10/28 02:34:56;;;;;;;30.42;13.60;;;;;;;;;;5074701;28;20055;-66
2021/10/28 02:37:22;;;;;;;30.08;13.13;;;;;;;;;;5092445;28;20028;-65
2021/10/28 02:39:48;;;;;;;29.48;13.38;;;;;;;;;;5092704;28;20469;-66
2021/10/28 02:42:15;;;;;;;30.30;13.35;;;;;;;;;;5092817;28;20044;-66
2021/10/28 02:44:41;;;;;;;29.17;14.30;;;;;;;;;;5074667;28;20023;-66
2021/10/28 02:47:07;;;;;;;29.70;14.07;;;;;;;;;;5092508;28;20047;-66
2021/10/28 02:49:33;;;;;;;28.98;14.73;;;;;;;;;;5074421;28;20028;-66
2021/10/28 02:51:59;;;;;;;31.13;13.80;;;;;;;;;;5074680;28;20380;-66
2021/10/28 02:54:25;;;;;;;27.52;13.88;;;;;;;;;;5092537;28;20076;-66
2021/10/28 02:56:51;;;;;;;26.67;13.45;;;;;;;;;;5092210;28;20055;-66
2021/10/28 02:59:18;;;;;;;26.83;14.25;;;;;;;;;;5092430;28;20476;-66
2021/10/28 03:01:45;;;;;;;29.55;14.15;;;;;;;;;;5074392;28;20016;-65
2021/10/28 03:04:11;;;;;;;26.77;13.68;;;;;;;;;;5092806;28;20016;-66
2021/10/28 03:06:39;;;;;;;31.92;13.95;;;;;;;;;;5074178;28;20031;-66
2021/10/28 03:09:07;;;;;;;28.38;13.73;;;;;;;;;;5074911;28;20027;-66
2021/10/28 03:11:34;;;;;;;29.27;13.95;;;;;;;;;;5092690;28;20448;-66
2021/10/28 03:14:00;;;;;;;28.92;14.38;;;;;;;;;;5092316;28;20395;-66
2021/10/28 03:27:32;;;;;;;28.52;14.90;;;;;;;;;;5092148;28;20035;-66
2021/10/28 03:29:58;;;;;;;35.72;16.88;;;;;;;;;;5091655;28;20035;-65
2021/10/28 03:32:25;;;;;;;28.40;14.05;;;;;;;;;;5091842;28;20472;-66
2021/10/28 03:34:52;;;;;;;29.00;14.48;;;;;;;;;;5091894;28;20028;-66
2021/10/28 03:37:23;;;;;;;25.80;14.00;;;;;;;;;;5073619;28;20024;-66
2021/10/28 03:48:26;;;;;;;31.00;15.73;;;;;;;;;;5092030;28;20043;-66
2021/10/28 04:29:59;;;;;;;31.52;15.50;;;;;;;;;;5091724;28;20042;-64
2021/10/28 04:32:25;;;;;;;33.00;17.55;;;;;;;;;;5091002;28;20187;-66
2021/10/28 04:34:51;;;;;;;37.28;17.92;;;;;;;;;;5091323;28;20031;-66
2021/10/28 04:37:17;;;;;;;32.75;16.40;;;;;;;;;;5090822;28;20024;-65
2021/10/28 04:39:43;;;;;;;35.97;18.17;;;;;;;;;;5090975;28;20023;-65
2021/10/28 04:42:09;;;;;;;36.85;18.98;;;;;;;;;;5072674;28;20027;-63
2021/10/28 04:44:35;;;;;;;34.17;17.50;;;;;;;;;;5093036;28;20542;-66
2021/10/28 04:47:01;;;;;;;36.92;18.70;;;;;;;;;;5076155;28;20024;-66
2021/10/28 04:49:27;;;;;;;38.30;17.48;;;;;;;;;;5094751;28;20099;-66
2021/10/28 04:51:53;;;;;;;39.13;18.67;;;;;;;;;;5094888;28;20436;-65
2021/10/28 04:54:19;;;;;;;36.83;19.27;;;;;;;;;;5076852;28;20028;-65
2021/10/28 04:56:45;;;;;;;38.42;20.08;;;;;;;;;;5094629;28;20020;-66
2021/10/28 04:59:11;;;;;;;35.42;19.15;;;;;;;;;;5110223;22;20036;-68
2021/10/28 05:01:37;;;;;;;39.70;19.55;;;;;;;;;;5093886;28;20046;-67
2021/10/28 05:04:03;;;;;;;35.60;19.85;;;;;;;;;;5094078;28;20383;-66
2021/10/28 05:06:29;;;;;;;36.75;20.55;;;;;;;;;;5094533;28;20032;-67
2021/10/28 05:08:55;;;;;;;42.53;19.13;;;;;;;;;;5094380;28;20030;-68
2021/10/28 05:11:24;;;;;;;37.50;18.75;;;;;;;;;;5094217;28;20030;-67
2021/10/28 05:13:52;;;;;;;35.33;19.23;;;;;;;;;;5075756;28;20024;-67
2021/10/28 05:16:18;;;;;;;43.33;21.17;;;;;;;;;;5075283;28;20446;-66
2021/10/28 05:18:45;;;;;;;37.28;20.52;;;;;;;;;;5093890;28;20372;-66
2021/10/28 05:21:12;;;;;;;43.15;22.75;;;;;;;;;;5093990;28;20012;-66
2021/10/28 05:23:38;;;;;;;38.47;20.40;;;;;;;;;;5093670;28;20450;-67
2021/10/28 05:26:05;;;;;;;36.92;18.73;;;;;;;;;;5093317;28;20093;-66
2021/10/28 05:28:31;;;;;;;36.17;18.90;;;;;;;;;;5093629;28;20031;-66
2021/10/28 05:30:57;;;;;;;36.83;19.35;;;;;;;;;;5094264;28;20082;-66
2021/10/28 05:33:23;;;;;;;34.83;18.33;;;;;;;;;;5093586;28;20020;-66
2021/10/28 05:35:49;;;;;;;37.15;18.25;;;;;;;;;;5094010;28;20028;-68
2021/10/28 05:38:15;;;;;;;35.63;17.77;;;;;;;;;;5093237;28;20030;-65
2021/10/28 05:40:41;;;;;;;37.10;19.75;;;;;;;;;;5093497;28;20026;-66
2021/10/28 05:43:09;;;;;;;36.75;20.00;;;;;;;;;;5093365;28;20444;-67
2021/10/28 05:45:35;;;;;;;36.45;20.05;;;;;;;;;;5092971;28;20091;-67
2021/10/28 05:48:01;;;;;;;36.05;19.48;;;;;;;;;;5092871;28;20018;-66
2021/10/28 05:50:29;;;;;;;37.33;20.52;;;;;;;;;;5074283;28;20097;-67
2021/10/28 05:52:56;;;;;;;34.78;19.80;;;;;;;;;;5093175;28;20031;-67
2021/10/28 05:55:24;;;;;;;38.00;20.45;;;;;;;;;;5092887;28;20012;-65
2021/10/28 05:57:50;;;;;;;37.35;21.05;;;;;;;;;;5092286;28;20024;-65
2021/10/28 06:00:16;;;;;;;40.33;20.65;;;;;;;;;;5092396;28;20031;-65
2021/10/28 06:02:42;;;;;;;40.72;22.45;;;;;;;;;;5092374;28;20020;-65
2021/10/28 06:05:09;;;;;;;37.45;19.27;;;;;;;;;;5092445;28;20048;-64
2021/10/28 06:07:35;;;;;;;38.72;18.83;;;;;;;;;;5074302;28;20081;-66
2021/10/28 06:10:01;;;;;;;36.30;18.20;;;;;;;;;;5092457;28;20488;-66
2021/10/28 06:12:32;;;;;;;39.45;19.38;;;;;;;;;;5092067;28;20031;-67
2021/10/28 06:14:58;;;;;;;38.03;18.65;;;;;;;;;;5092299;28;20525;-67
2021/10/28 06:17:31;;;;;;;37.78;20.95;;;;;;;;;;5091441;28;20075;-66
2021/10/28 06:19:59;;;;;;;37.42;20.05;;;;;;;;;;5092531;28;20020;-66
2021/10/28 06:22:25;;;;;;;38.78;20.08;;;;;;;;;;5091288;28;20041;-65
2021/10/28 06:24:51;;;;;;;42.42;21.48;;;;;;;;;;5091700;28;20016;-66
2021/10/28 06:27:17;;;;;;;41.45;20.85;;;;;;;;;;5091950;28;20360;-66
2021/10/28 06:29:43;;;;;;;38.97;20.13;;;;;;;;;;5091759;28;20031;-66
2021/10/28 06:32:10;;;;;;;43.85;20.75;;;;;;;;;;5073565;28;20502;-67
2021/10/28 06:34:42;;;;;;;42.72;21.13;;;;;;;;;;5073290;28;20029;-65
2021/10/28 06:37:08;;;;;;;40.55;20.98;;;;;;;;;;5073042;28;20024;-65
2021/10/28 06:39:35;;;;;;;37.47;20.15;;;;;;;;;;5091675;28;20028;-66
2021/10/28 06:42:03;;;;;;;39.65;20.92;;;;;;;;;;5091915;28;20407;-67
2021/10/28 06:44:29;;;;;;;35.15;19.73;;;;;;;;;;5091325;28;20023;-68
2021/10/28 06:46:55;;;;;;;40.35;19.88;;;;;;;;;;5072932;28;20415;-66
2021/10/28 06:49:22;;;;;;;34.90;19.25;;;;;;;;;;5091347;28;20028;-67
2021/10/28 06:51:48;;;;;;;38.20;21.27;;;;;;;;;;5091442;28;20059;-66
2021/10/28 06:54:27;;;;;;;36.38;19.00;;;;;;;;;;5091733;28;20052;-67
2021/10/28 07:04:42;;;;;;;36.80;20.15;;;;;;;;;;5091713;28;20539;-68
2021/10/28 07:07:08;;;;;;;38.65;19.60;;;;;;;;;;5091377;28;20062;-67
2021/10/28 07:09:37;;;;;;;37.45;20.67;;;;;;;;;;5091395;28;20067;-67
2021/10/28 07:14:32;;;;;;;38.10;20.98;;;;;;;;;;5091849;28;20067;-66
2021/10/28 07:22:58;;;;;;;36.75;19.00;;;;;;;;;;5091533;28;20042;-65
2021/10/28 08:14:12;;;;;;;25.80;13.88;;;;;;;;;;5091334;28;20031;-67
2021/10/28 08:17:34;;;;;;;26.02;13.38;;;;;;;;;;5090133;28;20463;-65
2021/10/28 08:21:59;;;;;;;24.48;13.07;;;;;;;;;;5094148;28;20026;-67
2021/10/28 08:29:40;;;;;;;30.00;15.27;;;;;;;;;;5095129;28;20042;-65
2021/10/28 08:32:06;;;;;;;26.10;13.70;;;;;;;;;;5093104;28;20471;-66
2021/10/28 08:34:35;;;;;;;25.50;12.25;;;;;;;;;;4735706;28;9999751;-67
2021/10/28 08:37:09;;;;;;;22.25;12.10;;;;;;;;;;5073578;28;20039;-67
2021/10/28 08:39:35;;;;;;;23.92;13.15;;;;;;;;;;5091957;28;20069;-67
2021/10/28 08:42:05;;;;;;;27.58;14.00;;;;;;;;;;5091828;28;20488;-66
2021/10/28 08:44:33;;;;;;;22.67;11.73;;;;;;;;;;5073319;28;20122;-67
2021/10/28 08:47:00;;;;;;;23.33;12.13;;;;;;;;;;5091929;28;20376;-67
2021/10/28 08:49:38;;;;;;;22.88;12.30;;;;;;;;;;5091170;28;20024;-66
2021/10/28 09:24:36;;;;;;;22.00;11.23;;;;;;;;;;5091413;28;20031;-66
2021/10/28 09:29:44;;;;;;;22.23;11.95;;;;;;;;;;5091170;28;20131;-66
2021/10/28 09:51:21;;;;;;;19.83;11.63;;;;;;;;;;5070473;28;20054;-66
2021/10/28 09:54:07;;;;;;;20.08;11.18;;;;;;;;;;5052637;28;20024;-67
2021/10/28 09:59:47;;;;;;;20.00;11.10;;;;;;;;;;5070707;28;20138;-66
2021/10/28 10:05:04;;;;;;;18.88;10.93;;;;;;;;;;5070733;28;20152;-70
2021/10/28 10:07:30;;;;;;;20.45;11.57;;;;;;;;;;5069978;28;20503;-70
2021/10/28 10:10:00;;;;;;;20.33;11.75;;;;;;;;;;5051820;28;20518;-69
2021/10/28 10:12:27;;;;;;;19.20;11.52;;;;;;;;;;5052325;28;20024;-71
2021/10/28 10:14:53;;;;;;;19.90;11.10;;;;;;;;;;5052250;28;20458;-70
2021/10/28 10:17:19;;;;;;;20.65;11.55;;;;;;;;;;5051905;28;20032;-69
2021/10/28 10:19:49;;;;;;;18.50;10.85;;;;;;;;;;5070113;28;20027;-69
2021/10/28 12:44:27;;;;;;;17.35;13.73;;;27.00;92.70;;;;;;5090177;28;20126;-66
2021/10/28 13:06:31;;;;;;;17.05;13.60;;;25.40;91.60;;;;;;5091755;28;20032;-66
2021/10/28 13:52:14;;;;;;;16.75;13.10;;;28.90;81.30;;;;;;5089793;28;20055;-67
2021/10/28 14:20:04;;;;;;;17.50;13.13;;;28.70;78.50;;;;;;5068648;28;20057;-67
2021/10/28 14:27:30;;;;;;;17.80;13.55;;;29.20;76.30;;;;;;5069029;28;20043;-66
2021/10/28 16:23:45;;;;;;;17.00;12.30;;;;;;;;;;5069971;28;20032;-64
2021/10/28 16:26:11;;;;;;;19.73;12.02;;;;;;;;;;5069681;28;20023;-66
2021/10/28 16:28:37;;;;;;;17.25;12.25;;;;;;;;;;5070054;28;20028;-63
2021/10/28 16:31:03;;;;;;;16.48;11.95;;;;;;;;;;5051382;28;20029;-66
2021/10/28 16:33:29;;;;;;;18.42;12.85;;;;;;;;;;5070100;28;20040;-66
2021/10/28 16:35:55;;;;;;;17.13;12.60;;;;;;;;;;4720330;28;10001340;-66
2021/10/28 16:38:24;;;;;;;20.05;13.00;;;;;;;;;;5086737;28;20130;-66
2021/10/28 16:40:50;;;;;;;18.15;12.48;;;;;;;;;;5070911;28;20148;-66
2021/10/28 16:43:16;;;;;;;18.33;12.45;;;;;;;;;;5090798;28;20016;-65
2021/10/28 16:45:44;;;;;;;17.48;12.48;;;;;;;;;;5072386;28;20024;-66
2021/10/28 16:48:10;;;;;;;18.33;13.32;;;;;;;;;;5072680;28;20028;-66
2021/10/28 16:50:36;;;;;;;18.23;12.38;;;;;;;;;;5079535;28;20448;-67
2021/10/28 16:53:04;;;;;;;17.67;12.60;;;;;;;;;;5070143;28;20024;-65
2021/10/28 16:55:31;;;;;;;16.80;12.37;;;;;;;;;;5070892;28;20097;-64
2021/10/28 16:57:57;;;;;;;18.20;12.32;;;;;;;;;;5070342;28;20060;-65
2021/10/28 17:00:23;;;;;;;18.17;12.70;;;;;;;;;;5095819;22;20036;-65
2021/10/28 17:02:49;;;;;;;21.70;12.70;;;;;;;;;;5091319;28;20130;-64
2021/10/28 17:05:16;;;;;;;18.65;12.73;;;;;;;;;;5090017;28;20509;-64
2021/10/28 17:07:42;;;;;;;19.00;12.77;;;;;;;;;;5090616;28;20089;-64
2021/10/28 17:10:09;;;;;;;18.67;12.68;;;;;;;;;;5091012;28;20426;-64
2021/10/28 17:12:36;;;;;;;18.35;13.23;;;;;;;;;;5091297;28;20091;-64
2021/10/28 17:15:02;;;;;;;19.20;12.73;;;;;;;;;;5091237;28;20078;-64
2021/10/28 17:17:29;;;;;;;20.10;12.80;;;;;;;;;;5086116;28;20024;-64
2021/10/28 17:19:59;;;;;;;19.13;12.70;;;;;;;;;;5091449;28;20085;-62
2021/10/28 17:22:25;;;;;;;19.75;12.48;;;;;;;;;;5089783;28;20028;-61
2021/10/28 17:24:51;;;;;;;18.33;12.05;;;;;;;;;;5090905;28;20028;-65
2021/10/28 17:27:18;;;;;;;28.33;22.75;;;;;;;;;;5089335;28;20107;-66
2021/10/28 17:29:44;;;;;;;19.88;13.63;;;;;;;;;;5087460;28;20019;-65
2021/10/28 17:32:10;;;;;;;19.65;12.77;;;;;;;;;;5078527;28;20020;-64
2021/10/28 17:34:36;;;;;;;18.25;12.10;;;;;;;;;;5081629;28;20039;-63
2021/10/28 17:37:04;;;;;;;19.90;12.77;;;;;;;;;;5076934;28;20073;-64
2021/10/28 17:39:29;;;;;;;18.52;12.18;;;;;;;;;;5082923;28;20032;-64
2021/10/28 17:41:59;;;;;;;22.63;12.40;;;;;;;;;;5090385;28;20127;-65
2021/10/28 17:44:42;;;;;;;20.67;12.20;;;;;;;;;;5089428;28;20036;-65
2021/10/28 17:47:09;;;;;;;20.48;12.35;;;;;;;;;;5084011;28;20024;-64
2021/10/28 17:49:36;;;;;;;18.63;12.80;;;;;;;;;;5070466;28;20029;-65
2021/10/28 17:52:03;;;;;;;23.92;12.52;;;;;;;;;;5068169;28;20387;-64
2021/10/28 17:54:29;;;;;;;21.85;12.90;;;;;;;;;;5070819;28;20122;-64
2021/10/28 17:56:56;;;;;;;21.27;12.60;;;;;;;;;;5069019;28;20120;-64
2021/10/28 17:59:22;;;;;;;24.42;13.50;;;;;;;;;;5070500;28;20059;-64
2021/10/28 18:01:48;;;;;;;18.42;12.38;;;;;;;;;;5068965;28;20411;-65
2021/10/28 18:04:14;;;;;;;20.02;12.35;;;;;;;;;;5088381;28;20035;-64
2021/10/28 18:06:40;;;;;;;18.05;11.45;;;;;;;;;;5088814;28;20031;-64
2021/10/28 18:09:06;;;;;;;20.83;12.57;;;;;;;;;;5088958;28;20032;-64
2021/10/28 18:11:33;;;;;;;21.20;13.27;;;;;;;;;;5088590;28;20100;-63
2021/10/28 18:14:00;;;;;;;23.65;12.55;;;;;;;;;;5090330;28;20472;-64
2021/10/28 18:16:26;;;;;;;20.77;14.02;;;;;;;;;;5088316;28;20032;-64
2021/10/28 18:18:53;;;;;;;21.00;14.05;;;;;;;;;;5090088;28;20024;-65
2021/10/28 18:21:19;;;;;;;20.65;12.85;;;;;;;;;;5087956;28;20020;-66
2021/10/28 18:23:49;;;;;;;24.77;14.98;;;;;;;;;;5088447;28;20762;-66
2021/10/28 18:26:16;;;;;;;22.45;14.02;;;;;;;;;;5088213;28;20107;-64
2021/10/28 18:28:41;;;;;;;24.30;14.07;;;;;;;;;;5090028;28;20031;-65
2021/10/28 18:31:07;;;;;;;22.55;14.50;;;;;;;;;;5088448;28;20036;-64
2021/10/28 18:33:33;;;;;;;24.52;14.85;;;;;;;;;;5089784;28;20392;-65
2021/10/28 18:36:00;;;;;;;25.10;14.90;;;;;;;;;;5089949;28;20032;-64
2021/10/28 18:38:28;;;;;;;23.25;15.23;;;;;;;;;;5088352;28;20029;-64
2021/10/28 18:40:55;;;;;;;22.70;14.30;;;;;;;;;;5089638;28;20028;-65
2021/10/28 18:43:21;;;;;;;22.45;13.90;;;;;;;;;;5088339;28;20455;-63
2021/10/28 18:45:47;;;;;;;23.45;14.50;;;;;;;;;;5089192;28;20024;-65
2021/10/28 18:48:14;;;;;;;22.13;14.27;;;;;;;;;;5088561;28;20077;-63
2021/10/28 18:50:40;;;;;;;23.88;14.77;;;;;;;;;;5089496;28;20024;-63
2021/10/28 18:53:06;;;;;;;25.27;15.07;;;;;;;;;;5089687;28;20035;-65
2021/10/28 18:55:32;;;;;;;25.42;14.90;;;;;;;;;;5089410;28;20028;-64
2021/10/28 18:57:58;;;;;;;22.70;14.30;;;;;;;;;;5089417;28;20418;-65
2021/10/28 19:00:24;;;;;;;27.00;15.43;;;;;;;;;;5087592;28;20035;-66
2021/10/28 19:02:50;;;;;;;23.45;16.05;;;;;;;;;;5088815;28;20031;-62
2021/10/28 19:05:16;;;;;;;24.45;15.93;;;;;;;;;;5088704;28;20052;-64
2021/10/28 19:07:43;;;;;;;24.73;15.35;;;;;;;;;;5088937;28;20388;-63
2021/10/28 19:10:09;;;;;;;25.77;15.30;;;;;;;;;;5089009;28;20024;-63
2021/10/28 19:12:35;;;;;;;26.05;15.75;;;;;;;;;;5087584;28;20110;-62
2021/10/28 19:15:01;;;;;;;24.70;15.90;;;;;;;;;;5088721;28;20028;-62
2021/10/28 19:17:27;;;;;;;24.48;16.08;;;;;;;;;;5086969;28;20039;-62
2021/10/28 19:19:53;;;;;;;26.20;16.25;;;;;;;;;;5087378;28;20024;-64
2021/10/28 19:22:20;;;;;;;25.98;16.80;;;;;;;;;;5087598;28;20184;-62
2021/10/28 19:24:46;;;;;;;26.02;16.13;;;;;;;;;;5089273;28;20580;-65
2021/10/28 19:27:12;;;;;;;24.40;16.00;;;;;;;;;;5087126;28;20070;-65
2021/10/28 19:29:43;;;;;;;26.08;15.48;;;;;;;;;;5088650;28;20474;-64
2021/10/28 19:32:17;;;;;;;24.10;15.07;;;;;;;;;;5087165;28;20027;-63
2021/10/28 19:34:43;;;;;;;25.83;16.27;;;;;;;;;;5088755;28;20426;-63
2021/10/28 19:40:16;;;;;;;23.67;14.52;;;;;;;;;;5089217;28;20028;-64
2021/10/28 19:47:47;;;;;;;25.77;16.10;;;;;;;;;;5088507;28;20038;-64
2021/10/28 19:50:13;;;;;;;28.38;17.45;;;;;;;;;;5087197;28;20031;-66
2021/10/28 19:52:39;;;;;;;25.90;16.55;;;;;;;;;;5088700;28;20487;-63
2021/10/28 19:55:05;;;;;;;26.35;15.75;;;;;;;;;;5088283;28;20461;-64
2021/10/28 19:57:35;;;;;;;27.25;15.82;;;;;;;;;;5087958;28;20032;-62
2021/10/28 20:00:15;;;;;;;27.10;15.77;;;;;;;;;;5088441;28;20024;-63
2021/10/28 20:21:06;;;;;;;28.23;17.25;;;;;;;;;;5092233;28;20092;-63
2021/10/28 20:23:32;;;;;;;27.30;16.20;;;;;;;;;;5092314;28;20066;-63
2021/10/28 20:25:58;;;;;;;25.67;16.50;;;;;;;;;;5091782;28;20023;-63
2021/10/28 20:28:26;;;;;;;27.10;16.80;;;;;;;;;;5092143;28;20537;-63
2021/10/28 20:30:56;;;;;;;28.77;18.15;;;;;;;;;;5091875;28;20570;-64
2021/10/28 20:33:24;;;;;;;27.05;18.27;;;;;;;;;;5092184;28;20085;-64
2021/10/28 20:38:16;;;;;;;28.70;18.23;;;;;;;;;;5082097;28;20033;-63
2021/10/28 20:40:42;;;;;;;26.25;16.63;;;;;;;;;;5069905;28;20430;-64
2021/10/28 20:43:08;;;;;;;28.33;16.02;;;;;;;;;;5071566;28;20024;-61
2021/10/28 20:45:34;;;;;;;27.20;16.45;;;;;;;;;;5069926;28;20073;-61
2021/10/28 20:48:01;;;;;;;29.10;17.05;;;;;;;;;;5071396;28;20504;-64
2021/10/28 20:50:28;;;;;;;27.73;16.10;;;;;;;;;;5071501;28;20770;-62
2021/10/28 20:52:55;;;;;;;28.95;17.73;;;;;;;;;;5072515;28;20021;-61
2021/10/28 20:55:21;;;;;;;25.65;16.25;;;;;;;;;;5072095;28;20036;-64
2021/10/28 20:57:48;;;;;;;30.55;18.20;;;;;;;;;;5070038;28;20176;-62
2021/10/28 21:00:16;;;;;;;29.77;18.13;;;;;;;;;;5070137;28;20035;-62
2021/10/28 21:02:43;;;;;;;29.70;18.17;;;;;;;;;;5071590;28;20059;-63
2021/10/28 21:05:12;;;;;;;28.55;17.25;;;;;;;;;;5070217;28;20036;-62
2021/10/28 21:07:42;;;;;;;29.90;17.73;;;;;;;;;;5070142;28;20092;-64
2021/10/28 21:10:09;;;;;;;28.92;17.27;;;;;;;;;;5082311;28;20036;-64
2021/10/28 21:12:36;;;;;;;29.35;18.10;;;;;;;;;;5079526;28;20036;-63
2021/10/28 21:15:02;;;;;;;28.00;17.00;;;;;;;;;;5079681;28;20032;-63
2021/10/28 21:17:28;;;;;;;29.27;17.73;;;;;;;;;;5086459;28;20031;-62
2021/10/28 21:19:54;;;;;;;30.42;18.65;;;;;;;;;;5086181;28;20036;-65
2021/10/28 21:22:20;;;;;;;30.40;18.02;;;;;;;;;;5091577;28;20095;-62
2021/10/28 21:24:49;;;;;;;31.92;18.25;;;;;;;;;;5091410;28;20048;-64
2021/10/28 21:27:16;;;;;;;31.25;19.35;;;;;;;;;;5091089;28;20031;-63
2021/10/28 21:29:42;;;;;;;34.33;21.98;;;;;;;;;;5091439;28;20031;-60
2021/10/28 21:32:11;;;;;;;32.35;19.98;;;;;;;;;;5089712;28;20020;-63
2021/10/28 21:34:37;;;;;;;32.95;20.35;;;;;;;;;;5091172;28;20031;-63
2021/10/28 21:37:04;;;;;;;34.53;19.90;;;;;;;;;;5090946;28;20028;-63
2021/10/28 21:39:31;;;;;;;34.30;19.75;;;;;;;;;;5091432;28;20554;-64
2021/10/28 21:41:57;;;;;;;36.42;20.83;;;;;;;;;;5090379;28;20036;-63
2021/10/28 21:44:23;;;;;;;33.63;19.67;;;;;;;;;;5091256;28;20024;-63
2021/10/28 21:46:49;;;;;;;35.28;20.58;;;;;;;;;;5089864;28;20077;-63
2021/10/28 21:49:15;;;;;;;31.48;20.65;;;;;;;;;;5091890;28;20020;-62
2021/10/28 21:51:43;;;;;;;33.70;20.23;;;;;;;;;;5087358;28;20028;-63
2021/10/28 21:54:27;;;;;;;34.92;20.27;;;;;;;;;;5078831;28;20028;-62
2021/10/28 21:56:56;;;;;;;37.05;20.35;;;;;;;;;;5080095;28;20032;-63
2021/10/28 22:01:55;;;;;;;33.97;19.08;;;;;;;;;;5082692;28;20114;-63
2021/10/28 22:24:10;;;;;;;34.05;19.67;;;;;;;;;;5078362;28;20188;-63
2021/10/28 22:26:04;;;;;;;36.83;20.98;;;;;;;;;;5080300;28;20031;-66
2021/10/28 22:28:30;;;;;;;35.53;21.92;;;;;;;;;;5077742;28;20024;-65
2021/10/28 22:30:56;;;;;;;34.25;20.77;;;;;;;;;;5077263;28;20039;-65
2021/10/28 22:33:22;;;;;;;36.22;21.42;;;;;;;;;;5079847;28;20104;-65
2021/10/28 22:36:00;;;;;;;34.78;21.33;;;;;;;;;;5078726;28;20700;-62
2021/10/28 22:38:32;;;;;;;;;;;;;;;;;;5076532;28;20036;-64
2021/10/28 22:40:58;;;;;;;34.22;20.92;;;;;;;;;;5077874;28;19916;-62
2021/10/28 22:43:24;;;;;;;34.22;20.35;;;;;;;;;;5080360;28;20016;-64
2021/10/28 22:45:50;;;;;;;35.25;20.77;;;;;;;;;;4728161;28;10000478;-63
2021/10/28 22:48:18;;;;;;;36.33;21.08;;;;;;;;;;5073206;28;20087;-63
2021/10/28 22:50:44;;;;;;;36.40;21.45;;;;;;;;;;5073139;28;20485;-62
2021/10/28 22:53:11;;;;;;;36.78;21.92;;;;;;;;;;5073543;28;20032;-64
2021/10/28 22:55:43;;;;;;;41.58;21.92;;;;;;;;;;5071051;28;20029;-64
2021/10/28 22:58:31;;;;;;;36.42;22.20;;;;;;;;;;5071780;28;20130;-63
2021/10/28 23:01:08;;;;;;;34.38;21.02;;;;;;;;;;5071300;28;20035;-64
2021/10/28 23:21:57;;;;;;;35.45;19.88;;;;;;;;;;5091180;28;20035;-66
2021/10/28 23:24:23;;;;;;;34.72;20.08;;;;;;;;;;5073061;28;20033;-66
2021/10/28 23:26:49;;;;;;;32.95;19.88;;;;;;;;;;5072855;28;20028;-66
2021/10/28 23:29:15;;;;;;;34.47;18.85;;;;;;;;;;5073286;28;20031;-66
2021/10/28 23:31:41;;;;;;;34.67;20.35;;;;;;;;;;5091165;28;20035;-67
2021/10/28 23:34:09;;;;;;;33.63;20.17;;;;;;;;;;5072923;28;20034;-65
2021/10/28 23:36:35;;;;;;;35.23;19.87;;;;;;;;;;5072814;28;20111;-65
2021/10/28 23:39:01;;;;;;;32.60;19.55;;;;;;;;;;5091110;28;20095;-66
2021/10/28 23:41:27;;;;;;;33.22;19.70;;;;;;;;;;5073040;28;20123;-66
2021/10/28 23:43:53;;;;;;;34.72;18.52;;;;;;;;;;5072689;28;20020;-65
2021/10/28 23:46:19;;;;;;;32.33;19.65;;;;;;;;;;5090983;28;20087;-64
2021/10/28 23:48:45;;;;;;;34.58;19.08;;;;;;;;;;5091060;28;20025;-64
2021/10/28 23:51:11;;;;;;;36.22;20.58;;;;;;;;;;5071840;28;20126;-65
2021/10/28 23:53:37;;;;;;;34.17;18.75;;;;;;;;;;5090869;28;20111;-65
2021/10/28 23:56:03;;;;;;;36.72;20.67;;;;;;;;;;5072804;28;20024;-65
2021/10/28 23:58:29;;;;;;;35.05;20.80;;;;;;;;;;5090483;28;20024;-65
